Terminal Aerodrome Forecast
Issued by NWS Jacksonville, FL

Home | Current Version | Previous Version | Text Only | Print | Product List | Glossary On
Versions: 1 2 3 4 5 6 7 8 9 10 11 12 13
758
FTUS42 KJAX 292328
TAFSSI
TAF
KSSI 292328Z 3000/3024 08004KT P6SM SCT080
     FM300900 07003KT 3SM BR SCT005
     FM301300 11009KT P6SM SCT060 BKN100=

USA.gov is the U.S. government's official web portal to all federal, state and local government web resources and services.